Time;durP1;ratioP1;P1;durP2;ratioP2;P2;SDS_P1;SDS_P2;PMS_P1;PMS_P2;Temp;Humidity;BMP_temperature;BMP_pressure;BME280_temperature;BME280_humidity;BME280_pressure;Samples;Min_cycle;Max_cycle;Signal;HPM_P1;HPM_P2
2022/11/29 00:00:26;;;;;;;;;9.00;8.75;;;;;9.26;77.68;99596.41;5076056;28;8818;-57
2022/11/29 00:02:53;;;;;;;;;6.75;5.75;;;;;9.26;77.54;99596.41;5076048;28;8826;-57
2022/11/29 00:05:22;;;;;;;;;9.75;8.50;;;;;9.25;77.56;99587.56;5076005;28;8956;-56
2022/11/29 00:07:50;;;;;;;;;3.50;3.50;;;;;9.27;77.41;99598.91;5076054;28;8822;-56
2022/11/29 00:10:18;;;;;;;;;10.00;10.00;;;;;9.27;78.03;99593.59;5076602;28;8809;-55
2022/11/29 00:12:46;;;;;;;;;12.00;9.00;;;;;9.27;77.60;99601.56;5076068;28;8832;-55
2022/11/29 00:15:13;;;;;;;;;10.50;9.50;;;;;9.27;77.66;99598.91;5075604;28;8834;-57
2022/11/29 00:17:42;;;;;;;;;9.25;7.50;;;;;9.29;77.89;99601.44;5076262;28;8834;-56
2022/11/29 00:20:10;;;;;;;;;12.00;9.25;;;;;9.29;77.61;99601.44;5075736;28;8822;-55
2022/11/29 00:22:38;;;;;;;;;17.00;15.75;;;;;9.30;77.67;99606.66;5075671;28;8864;-57
2022/11/29 00:25:06;;;;;;;;;5.67;4.00;;;;;9.31;78.12;99604.81;5075688;28;8830;-56
2022/11/29 00:27:33;;;;;;;;;10.50;9.25;;;;;9.31;77.69;99611.00;5075742;28;8834;-57
2022/11/29 00:30:01;;;;;;;;;12.00;9.75;;;;;9.31;77.70;99608.34;5075642;28;8828;-57
2022/11/29 00:32:29;;;;;;;;;13.00;10.75;;;;;9.32;77.32;99612.69;5075379;28;8814;-56
2022/11/29 00:34:57;;;;;;;;;9.25;8.50;;;;;9.33;77.70;99611.72;5075247;28;8814;-57
2022/11/29 00:37:26;;;;;;;;;10.50;9.25;;;;;9.33;78.04;99614.38;5075401;28;8880;-56
2022/11/29 00:39:54;;;;;;;;;7.50;7.00;;;;;9.34;77.67;99615.22;5075836;28;8798;-56
2022/11/29 00:42:23;;;;;;;;;9.25;8.50;;;;;9.34;77.58;99609.91;5074547;28;8848;-57
2022/11/29 00:44:51;;;;;;;;;12.50;8.25;;;;;9.34;78.26;99604.59;5075168;28;8888;-57
2022/11/29 00:47:18;;;;;;;;;12.00;10.50;;;;;9.34;77.76;99607.25;5075697;28;8829;-55
2022/11/29 00:49:46;;;;;;;;;12.75;12.00;;;;;9.35;77.84;99606.28;5075663;28;8840;-55
2022/11/29 00:52:14;;;;;;;;;9.00;8.00;;;;;9.34;77.74;99600.09;5075175;28;8829;-57
2022/11/29 00:54:42;;;;;;;;;9.25;9.00;;;;;9.34;77.85;99605.44;5075256;28;8826;-55
2022/11/29 00:57:11;;;;;;;;;6.25;6.00;;;;;9.35;77.67;99607.13;5075242;28;8976;-56
2022/11/29 00:59:38;;;;;;;;;6.25;6.25;;;;;9.35;77.54;99606.28;5075132;28;8845;-55
2022/11/29 01:02:06;;;;;;;;;9.50;8.00;;;;;9.35;77.95;99604.44;5075105;28;8841;-57
2022/11/29 01:04:34;;;;;;;;;10.50;9.00;;;;;9.36;78.16;99607.97;5075032;28;8818;-57
2022/11/29 01:07:02;;;;;;;;;8.00;6.50;;;;;9.37;77.65;99609.66;5075523;28;8908;-57
2022/11/29 01:09:29;;;;;;;;;3.00;3.00;;;;;9.37;77.81;99612.31;5075149;28;8814;-58
2022/11/29 01:11:57;;;;;;;;;11.00;9.00;;;;;9.37;77.75;99605.19;5075242;28;8848;-56
2022/11/29 01:14:25;;;;;;;;;7.00;5.50;;;;;9.38;78.34;99611.34;5075627;28;8822;-56
2022/11/29 01:16:52;;;;;;;;;9.75;7.00;;;;;9.37;77.81;99607.00;5075041;28;8944;-56
2022/11/29 01:19:24;;;;;;;;;9.00;7.00;;;;;9.36;78.22;99614.16;5075514;28;8992;-58
2022/11/29 01:21:51;;;;;;;;;13.50;10.75;;;;;9.36;78.17;99619.47;5075422;28;8861;-57
2022/11/29 01:24:21;;;;;;;;;13.50;9.50;;;;;9.37;78.09;99613.16;5075462;28;8825;-57
2022/11/29 01:26:48;;;;;;;;;10.00;9.00;;;;;9.35;78.26;99617.75;5075045;28;8922;-57
2022/11/29 01:29:16;;;;;;;;;8.00;7.50;;;;;9.35;77.88;99617.75;5075044;28;8829;-56
2022/11/29 01:31:45;;;;;;;;;9.25;9.25;;;;;9.36;78.10;99623.91;5074953;28;8834;-56
2022/11/29 01:34:13;;;;;;;;;6.00;4.00;;;;;9.36;77.87;99618.59;5075001;28;8912;-57
2022/11/29 01:36:40;;;;;;;;;10.50;7.50;;;;;9.35;78.41;99623.06;5074858;28;8826;-58
2022/11/29 01:39:08;;;;;;;;;6.00;6.00;;;;;9.35;78.00;99619.56;5074845;28;8817;-57
2022/11/29 01:41:36;;;;;;;;;8.50;7.00;;;;;9.35;78.39;99623.06;5074836;28;8841;-58
2022/11/29 01:44:06;;;;;;;;;7.00;6.25;;;;;9.36;77.85;99629.22;5074868;28;8838;-57
2022/11/29 01:46:33;;;;;;;;;4.00;4.00;;;;;9.36;78.07;99629.22;5078835;28;8915;-58
2022/11/29 01:49:01;;;;;;;;;9.00;6.50;;;;;9.37;78.01;99631.78;5078621;28;8915;-57
2022/11/29 01:51:28;;;;;;;;;6.75;6.00;;;;;9.37;78.55;99631.78;5078699;28;8915;-57
2022/11/29 01:53:56;;;;;;;;;5.00;3.50;;;;;9.39;78.04;99640.47;5078654;28;8822;-55
2022/11/29 01:56:24;;;;;;;;;3.00;3.00;;;;;9.39;77.82;99637.81;5078571;28;8830;-57
2022/11/29 01:58:52;;;;;;;;;12.00;9.75;;;;;9.40;77.88;99633.31;5078425;28;8919;-57
2022/11/29 02:01:19;;;;;;;;;5.00;4.00;;;;;9.40;78.17;99642.13;5078148;28;8833;-57
2022/11/29 02:03:47;;;;;;;;;6.75;5.00;;;;;9.40;78.04;99636.81;5078415;28;8857;-57
2022/11/29 02:06:15;;;;;;;;;6.00;5.50;;;;;9.41;77.84;99638.50;5077006;28;8837;-56
2022/11/29 02:08:43;;;;;;;;;8.00;6.50;;;;;9.41;77.99;99643.81;5076879;28;8825;-57
2022/11/29 02:11:11;;;;;;;;;7.00;6.25;;;;;9.41;78.31;99638.50;5077043;28;8861;-57
2022/11/29 02:13:38;;;;;;;;;7.00;6.50;;;;;9.40;78.18;99642.13;5077390;28;8857;-55
2022/11/29 02:16:06;;;;;;;;;11.50;9.25;;;;;9.43;78.42;99641.06;5078061;28;8880;-55
2022/11/29 02:18:33;;;;;;;;;6.50;6.50;;;;;9.42;78.35;99640.19;5077719;28;8830;-57
2022/11/29 02:21:02;;;;;;;;;9.50;9.00;;;;;9.43;77.95;99652.50;5078176;28;8970;-57
2022/11/29 02:23:30;;;;;;;;;7.50;6.50;;;;;9.44;78.24;99642.75;5078448;28;8825;-56
2022/11/29 02:25:58;;;;;;;;;4.75;4.75;;;;;9.43;77.81;99641.88;5077753;28;8901;-58
2022/11/29 02:28:25;;;;;;;;;7.50;6.50;;;;;9.43;78.05;99647.19;5077697;28;8830;-58
2022/11/29 02:30:53;;;;;;;;;10.50;9.25;;;;;9.43;78.33;99651.69;5077512;28;8818;-58
2022/11/29 02:33:21;;;;;;;;;3.50;3.50;;;;;9.42;78.48;99644.69;5077617;28;8842;-58
2022/11/29 02:35:49;;;;;;;;;6.25;6.00;;;;;9.42;77.86;99650.84;5077636;28;8891;-57
2022/11/29 02:38:16;;;;;;;;;8.25;7.00;;;;;9.43;78.41;99651.69;5077192;28;8829;-57
2022/11/29 02:40:44;;;;;;;;;3.50;3.50;;;;;9.43;78.09;99655.16;5077476;28;8814;-58
2022/11/29 02:43:11;;;;;;;;;4.50;4.00;;;;;9.43;78.12;99663.16;5077731;28;8814;-57
2022/11/29 02:45:39;;;;;;;;;3.75;3.75;;;;;9.44;78.48;99664.88;5077877;28;8834;-58
2022/11/29 02:48:07;;;;;;;;;6.75;6.50;;;;;9.43;78.64;99657.84;5077206;28;8822;-57
2022/11/29 02:50:35;;;;;;;;;9.00;9.00;;;;;9.45;78.30;99655.06;5077596;28;8826;-58
2022/11/29 02:53:02;;;;;;;;;7.00;7.00;;;;;9.45;78.52;99663.03;5077535;28;8817;-58
2022/11/29 02:55:30;;;;;;;;;5.00;3.75;;;;;9.45;77.96;99663.88;5076333;28;8834;-58
2022/11/29 02:57:58;;;;;;;;;7.50;6.25;;;;;9.45;78.63;99666.56;5076782;28;8846;-58
2022/11/29 03:00:26;;;;;;;;;9.25;7.50;;;;;9.45;78.13;99674.53;5077204;28;8826;-57
2022/11/29 03:02:53;;;;;;;;;7.50;7.50;;;;;9.45;78.21;99676.31;5077522;28;8931;-57
2022/11/29 03:05:21;;;;;;;;;6.50;5.50;;;;;9.45;78.53;99681.63;5077142;28;8825;-58
2022/11/29 03:07:49;;;;;;;;;11.50;11.00;;;;;9.44;78.62;99672.84;5077196;28;8810;-58
2022/11/29 03:10:18;;;;;;;;;7.00;7.00;;;;;9.45;78.32;99677.19;5069442;28;8899;-57
2022/11/29 03:12:46;;;;;;;;;8.50;6.75;;;;;9.45;78.29;99677.19;5077216;28;8923;-58
2022/11/29 03:15:14;;;;;;;;;8.00;7.00;;;;;9.45;78.51;99681.63;5076935;28;8846;-58
2022/11/29 03:17:41;;;;;;;;;7.50;7.50;;;;;9.45;78.58;99684.28;5077102;28;9612;-58
2022/11/29 03:20:09;;;;;;;;;10.00;10.00;;;;;9.44;78.61;99686.13;5077405;28;8826;-57
2022/11/29 03:22:37;;;;;;;;;10.75;9.75;;;;;9.43;78.19;99689.72;5077347;28;8818;-57
2022/11/29 03:25:05;;;;;;;;;11.25;10.75;;;;;9.43;78.51;99691.56;5076845;28;8914;-58
2022/11/29 03:27:32;;;;;;;;;6.75;6.50;;;;;9.43;78.64;99694.22;5076047;28;8922;-58
2022/11/29 03:30:00;;;;;;;;;6.25;5.50;;;;;9.43;78.70;99699.53;5076498;28;8822;-58
2022/11/29 03:32:28;;;;;;;;;12.75;11.00;;;;;9.42;78.75;99698.66;5076542;28;8829;-57
2022/11/29 03:34:56;;;;;;;;;11.00;7.00;;;;;9.42;78.42;99695.19;5076394;28;8822;-57
2022/11/29 03:37:24;;;;;;;;;11.00;10.75;;;;;9.41;78.70;99696.16;5076091;28;8940;-57
2022/11/29 03:39:51;;;;;;;;;14.00;12.50;;;;;9.40;79.15;99697.94;5076516;28;8817;-55
2022/11/29 03:42:19;;;;;;;;;7.75;6.75;;;;;9.39;78.60;99704.22;5076982;28;8955;-57
2022/11/29 03:44:46;;;;;;;;;9.75;8.50;;;;;9.38;78.75;99699.03;5076274;28;8924;-57
2022/11/29 03:47:14;;;;;;;;;11.00;9.75;;;;;9.39;78.71;99703.38;5076298;28;8834;-57
2022/11/29 03:49:42;;;;;;;;;13.75;12.25;;;;;9.39;78.93;99704.22;5076509;28;9488;-55
2022/11/29 03:52:10;;;;;;;;;10.00;7.00;;;;;9.40;79.21;99708.56;5075963;28;8813;-55
2022/11/29 03:54:37;;;;;;;;;9.25;8.00;;;;;9.40;78.45;99707.72;5075953;28;8818;-57
2022/11/29 03:57:05;;;;;;;;;10.00;8.75;;;;;9.38;79.19;99715.84;5075915;28;8830;-55
2022/11/29 03:59:34;;;;;;;;;10.50;9.25;;;;;9.38;79.27;99712.31;5075988;28;8868;-57
2022/11/29 04:02:02;;;;;;;;;9.00;8.00;;;;;9.37;78.94;99710.63;5075888;28;8908;-57
2022/11/29 04:04:30;;;;;;;;;17.00;12.75;;;;;9.37;79.07;99706.19;5076115;28;8871;-56
2022/11/29 04:06:57;;;;;;;;;14.25;11.75;;;;;9.38;79.12;99712.31;5075420;28;8841;-57
2022/11/29 04:09:25;;;;;;;;;13.50;11.75;;;;;9.36;78.94;99717.78;5075772;28;8927;-57
2022/11/29 04:11:57;;;;;;;;;9.00;7.00;;;;;9.35;79.35;99724.03;5075760;28;8817;-55
2022/11/29 04:14:25;;;;;;;;;11.50;10.75;;;;;9.37;79.17;99721.25;5075776;28;8842;-57
2022/11/29 04:16:53;;;;;;;;;15.50;12.00;;;;;9.35;79.17;99729.34;5076025;28;8846;-58
2022/11/29 04:19:20;;;;;;;;;16.50;14.00;;;;;9.35;79.20;99726.69;5076111;28;8887;-56
2022/11/29 04:21:48;;;;;;;;;11.25;6.50;;;;;9.35;79.41;99733.81;5075579;28;8841;-58
2022/11/29 04:24:16;;;;;;;;;4.50;3.75;;;;;9.33;79.12;99735.75;5075497;28;8822;-55
2022/11/29 04:26:43;;;;;;;;;9.50;8.00;;;;;9.31;79.54;99735.88;5075917;28;8845;-55
2022/11/29 04:29:11;;;;;;;;;11.00;7.00;;;;;9.31;79.68;99741.19;5075613;28;8830;-58
2022/11/29 04:31:39;;;;;;;;;9.25;9.00;;;;;9.28;79.30;99744.06;5074697;28;8821;-58
2022/11/29 04:34:07;;;;;;;;;10.25;9.75;;;;;9.28;79.80;99741.41;5075302;28;8822;-57
2022/11/29 04:36:35;;;;;;;;;12.50;11.50;;;;;9.24;79.94;99742.63;5075275;28;9541;-57
2022/11/29 04:39:02;;;;;;;;;9.50;7.00;;;;;9.24;79.61;99747.94;5075430;28;8861;-57
2022/11/29 04:41:30;;;;;;;;;7.50;7.00;;;;;9.24;79.34;99752.41;5075518;28;8838;-56
2022/11/29 04:43:57;;;;;;;;;11.25;10.00;;;;;9.23;79.81;99750.69;5075232;28;8826;-57
2022/11/29 04:46:25;;;;;;;;;7.50;7.00;;;;;9.21;79.70;99756.16;5076055;28;8911;-57
2022/11/29 04:48:53;;;;;;;;;6.00;6.00;;;;;9.22;80.12;99754.34;5075113;28;8948;-55
2022/11/29 04:51:20;;;;;;;;;9.00;6.00;;;;;9.22;79.60;99760.50;5074549;28;8853;-57
2022/11/29 04:53:48;;;;;;;;;10.75;9.50;;;;;9.21;80.19;99761.47;5075980;28;8923;-58
2022/11/29 04:56:16;;;;;;;;;9.25;8.00;;;;;9.22;79.73;99765.81;5066808;28;8845;-58
2022/11/29 04:58:43;;;;;;;;;6.75;6.25;;;;;9.22;79.99;99765.81;5074884;28;8935;-55
2022/11/29 05:01:13;;;;;;;;;9.50;9.25;;;;;9.21;79.94;99764.13;5074689;28;8814;-56
2022/11/29 05:03:41;;;;;;;;;9.00;7.50;;;;;9.22;80.00;99765.81;5075218;28;8810;-57
2022/11/29 05:06:12;;;;;;;;;5.00;3.75;;;;;9.21;79.74;99774.75;5074919;28;8821;-57
2022/11/29 05:08:39;;;;;;;;;8.00;6.50;;;;;9.21;79.91;99769.44;5074948;28;9479;-57
2022/11/29 05:11:07;;;;;;;;;9.00;9.00;;;;;9.21;80.03;99774.75;5074659;28;8825;-57
2022/11/29 05:13:35;;;;;;;;;5.00;5.00;;;;;9.21;79.75;99768.59;5074114;28;8822;-57
2022/11/29 05:16:02;;;;;;;;;10.00;9.00;;;;;9.20;80.07;99778.34;5074747;28;8822;-58
2022/11/29 05:18:30;;;;;;;;;9.75;8.50;;;;;9.19;80.23;99779.31;5074811;28;8836;-56
2022/11/29 05:21:00;;;;;;;;;1.00;0.75;;;;;9.19;80.50;99781.16;5077972;28;8926;-55
2022/11/29 05:23:34;;;;;;;;;7.50;6.75;;;;;9.17;80.21;99780.38;5076580;28;8880;-57
2022/11/29 05:26:03;;;;;;;;;11.00;7.00;;;;;9.17;80.29;99788.34;5077360;28;8822;-57
2022/11/29 05:28:30;;;;;;;;;4.25;1.00;;;;;9.18;80.58;99790.09;5077834;28;8825;-57
2022/11/29 05:30:58;;;;;;;;;11.50;9.00;;;;;9.17;80.34;99791.00;5078106;28;8849;-58
2022/11/29 05:33:26;;;;;;;;;7.50;7.00;;;;;9.17;80.27;99788.34;5078694;28;8830;-55
2022/11/29 05:35:53;;;;;;;;;9.75;8.50;;;;;9.15;80.00;99793.81;5078363;28;8825;-57
2022/11/29 05:38:22;;;;;;;;;5.75;4.75;;;;;9.17;80.46;99793.66;5078551;28;8836;-57
2022/11/29 05:40:49;;;;;;;;;13.00;13.00;;;;;9.17;80.49;99799.84;5078966;28;8919;-56
2022/11/29 05:43:17;;;;;;;;;11.00;10.00;;;;;9.16;80.54;99803.47;5078587;28;8838;-56
2022/11/29 05:45:45;;;;;;;;;6.25;4.50;;;;;9.18;80.39;99803.38;5078369;28;8838;-57
2022/11/29 05:48:12;;;;;;;;;11.00;10.50;;;;;9.18;80.23;99803.38;5077977;28;8826;-57
2022/11/29 05:50:40;;;;;;;;;6.75;6.75;;;;;9.18;80.50;99806.03;5078396;28;8830;-57
2022/11/29 05:53:08;;;;;;;;;6.50;5.50;;;;;9.17;80.62;99810.47;5078224;28;9553;-57
2022/11/29 05:55:36;;;;;;;;;12.50;11.00;;;;;9.16;80.45;99811.44;5077406;28;8842;-57
2022/11/29 05:58:03;;;;;;;;;6.75;6.75;;;;;9.18;80.80;99822.78;5076577;28;8825;-56
2022/11/29 06:00:31;;;;;;;;;10.00;8.50;;;;;9.16;80.44;99813.25;5075913;28;8833;-57
2022/11/29 06:03:02;;;;;;;;;9.25;8.00;;;;;9.14;80.75;99818.69;5076521;28;8833;-57
2022/11/29 06:05:30;;;;;;;;;9.25;6.75;;;;;9.16;80.55;99831.84;5075721;28;8837;-57
2022/11/29 06:07:58;;;;;;;;;10.00;9.50;;;;;9.14;80.72;99828.44;5075672;28;8846;-57
2022/11/29 06:10:25;;;;;;;;;6.50;6.25;;;;;9.11;80.76;99837.50;5075995;28;8833;-57
2022/11/29 06:12:53;;;;;;;;;9.25;9.00;;;;;9.09;80.26;99847.41;5076033;28;8914;-56
2022/11/29 06:15:23;;;;;;;;;8.50;6.00;;;;;9.08;80.69;99843.06;5075873;28;8854;-57
2022/11/29 06:17:51;;;;;;;;;7.00;6.25;;;;;9.08;80.14;99845.72;5075777;28;8826;-57
2022/11/29 06:20:19;;;;;;;;;15.50;12.50;;;;;9.08;80.50;99852.81;5075853;28;8841;-57
2022/11/29 06:22:47;;;;;;;;;8.75;6.25;;;;;9.08;80.31;99853.69;5076509;28;8843;-57
2022/11/29 06:25:16;;;;;;;;;13.00;9.50;;;;;9.08;80.35;99852.81;5076048;28;9685;-56
2022/11/29 06:27:46;;;;;;;;;11.25;10.50;;;;;9.09;80.50;99865.13;5076158;28;8849;-57
2022/11/29 06:30:14;;;;;;;;;11.00;11.00;;;;;9.08;80.56;99866.94;5075827;28;8830;-58
2022/11/29 06:32:42;;;;;;;;;14.00;12.50;;;;;9.06;80.30;99863.56;5075083;28;8837;-58
2022/11/29 06:35:10;;;;;;;;;2.50;0.50;;;;;9.05;80.99;99863.69;5073937;28;8842;-58
2022/11/29 06:37:38;;;;;;;;;9.75;9.00;;;;;9.05;80.53;99867.16;5074141;28;8821;-58
2022/11/29 06:40:07;;;;;;;;;12.00;10.00;;;;;9.05;80.93;99876.97;5074519;28;8855;-59
2022/11/29 06:42:34;;;;;;;;;9.00;6.50;;;;;9.03;80.50;99877.06;5074009;28;8838;-59
2022/11/29 06:45:02;;;;;;;;;15.50;13.50;;;;;9.03;80.59;99876.22;5074517;28;8850;-59
2022/11/29 06:47:30;;;;;;;;;12.75;12.50;;;;;9.02;80.91;99880.69;5074300;28;8862;-59
2022/11/29 06:49:57;;;;;;;;;8.00;7.00;;;;;9.02;80.20;99883.34;5074950;28;8810;-59
2022/11/29 06:52:26;;;;;;;;;8.50;7.00;;;;;9.03;80.29;99886.84;5074808;28;8826;-59
2022/11/29 06:54:53;;;;;;;;;11.00;10.25;;;;;9.03;80.55;99884.19;5073997;28;8857;-59
2022/11/29 06:57:21;;;;;;;;;9.00;7.00;;;;;9.01;80.72;99881.66;5074587;28;8954;-59
2022/11/29 06:59:49;;;;;;;;;9.50;9.50;;;;;9.02;80.57;99899.28;5073595;28;8976;-59
2022/11/29 07:02:17;;;;;;;;;10.75;9.50;;;;;9.02;80.60;99896.63;5073695;28;8829;-59
2022/11/29 07:04:46;;;;;;;;;9.00;9.00;;;;;9.02;80.72;99895.75;5072354;28;8838;-59
2022/11/29 07:07:14;;;;;;;;;8.50;7.00;;;;;9.03;80.71;99902.78;5072848;28;9597;-59
2022/11/29 07:09:42;;;;;;;;;8.50;8.50;;;;;9.02;80.69;99909.03;5072786;28;8840;-59
2022/11/29 07:12:10;;;;;;;;;9.00;8.75;;;;;9.01;80.50;99905.56;5072980;28;8841;-59
2022/11/29 07:14:37;;;;;;;;;8.50;7.00;;;;;9.01;80.17;99905.56;5073587;28;8842;-59
2022/11/29 07:17:05;;;;;;;;;9.00;7.50;;;;;9.01;80.60;99913.53;5072783;28;8833;-59
2022/11/29 07:19:33;;;;;;;;;8.75;7.00;;;;;9.00;80.72;99909.16;5072734;28;8884;-58
2022/11/29 07:22:01;;;;;;;;;9.00;7.00;;;;;9.01;80.76;99916.19;5073166;28;8821;-60
2022/11/29 07:24:28;;;;;;;;;5.75;4.75;;;;;9.01;80.54;99915.31;5074574;28;8829;-59
2022/11/29 07:26:56;;;;;;;;;6.00;6.00;;;;;9.01;80.89;99918.84;5073841;28;8918;-59
2022/11/29 07:29:26;;;;;;;;;6.00;3.50;;;;;9.00;80.95;99918.94;5074174;28;8846;-58
2022/11/29 07:31:54;;;;;;;;;11.25;10.25;;;;;9.00;80.75;99921.59;5073794;28;8825;-57
2022/11/29 07:34:22;;;;;;;;;6.50;6.00;;;;;8.99;80.69;99923.41;5074061;28;8817;-59
2022/11/29 07:36:49;;;;;;;;;9.50;7.00;;;;;9.00;80.62;99925.09;5074179;28;8857;-58
2022/11/29 07:39:17;;;;;;;;;6.00;6.00;;;;;9.00;80.71;99935.72;5074403;28;9630;-59
2022/11/29 07:41:46;;;;;;;;;17.50;13.00;;;;;9.02;80.46;99928.50;5073512;28;8980;-59
2022/11/29 07:44:14;;;;;;;;;12.00;10.50;;;;;9.01;80.39;99931.25;5074597;28;8849;-58
2022/11/29 07:46:42;;;;;;;;;7.50;6.00;;;;;9.01;80.63;99937.41;5074721;28;8855;-59
2022/11/29 07:49:10;;;;;;;;;16.00;15.25;;;;;9.02;80.62;99933.81;5074612;28;8956;-58
2022/11/29 07:51:38;;;;;;;;;18.25;16.50;;;;;9.03;80.40;99935.50;5074097;28;8914;-59
2022/11/29 07:54:08;;;;;;;;;11.25;8.50;;;;;9.03;80.04;99935.50;5074164;28;8982;-57
2022/11/29 07:56:36;;;;;;;;;6.00;6.00;;;;;9.04;80.40;99946.97;5073623;28;8818;-59
2022/11/29 07:59:04;;;;;;;;;17.00;15.50;;;;;9.05;80.66;99938.03;5073057;28;8840;-59
2022/11/29 08:01:32;;;;;;;;;11.00;9.00;;;;;9.05;80.40;99946.00;5073815;28;8846;-59
2022/11/29 08:03:59;;;;;;;;;15.50;14.00;;;;;9.05;80.63;99946.84;5073830;28;8963;-59
2022/11/29 08:06:28;;;;;;;;;15.75;12.00;;;;;9.06;80.47;99953.88;5073522;28;8848;-58
2022/11/29 08:08:55;;;;;;;;;10.75;9.00;;;;;9.07;80.33;99955.56;5072942;28;8830;-58
2022/11/29 08:11:23;;;;;;;;;15.25;13.00;;;;;9.07;80.62;99952.06;5073397;28;8837;-56
2022/11/29 08:13:51;;;;;;;;;15.25;13.00;;;;;9.08;80.63;99948.44;5073967;28;8842;-59
2022/11/29 08:16:19;;;;;;;;;9.00;7.50;;;;;9.09;80.82;99945.69;5073435;28;9479;-59
2022/11/29 08:18:47;;;;;;;;;18.00;16.50;;;;;9.09;80.43;99951.00;5073776;28;8826;-59
2022/11/29 08:21:17;;;;;;;;;18.00;15.75;;;;;9.10;80.24;99952.69;5072730;28;8904;-59
2022/11/29 08:23:44;;;;;;;;;13.00;11.50;;;;;9.11;80.69;99956.19;5072223;28;8988;-59
2022/11/29 08:26:12;;;;;;;;;13.75;10.50;;;;;9.10;80.42;99957.13;5072162;28;8852;-59
2022/11/29 08:28:40;;;;;;;;;12.00;10.50;;;;;9.11;80.51;99959.69;5071563;28;8845;-58
2022/11/29 08:31:09;;;;;;;;;13.50;11.00;;;;;9.11;81.02;99959.69;5071984;28;8980;-58
2022/11/29 08:33:37;;;;;;;;;17.50;16.00;;;;;9.12;80.76;99964.03;5071761;28;8864;-59
2022/11/29 08:36:05;;;;;;;;;11.25;11.25;;;;;9.14;80.57;99967.44;5071665;28;8841;-59
2022/11/29 08:38:33;;;;;;;;;15.75;14.00;;;;;9.14;80.43;99975.41;5072638;28;8826;-59
2022/11/29 08:41:02;;;;;;;;;15.25;13.50;;;;;9.16;80.38;99973.47;5072790;28;9511;-58
2022/11/29 08:43:30;;;;;;;;;12.75;11.25;;;;;9.19;80.22;99978.56;5072190;28;8846;-58
2022/11/29 08:45:58;;;;;;;;;16.50;13.75;;;;;9.20;80.07;99977.59;5071744;28;8845;-59
2022/11/29 08:48:26;;;;;;;;;13.25;12.25;;;;;9.23;80.32;99981.84;5072070;28;8959;-59
2022/11/29 08:50:54;;;;;;;;;12.75;10.00;;;;;9.24;80.27;99986.19;5072214;28;8829;-59
2022/11/29 08:56:08;;;;;;;;;13.00;10.00;;;;;9.28;80.73;99977.03;5075957;28;8849;-59
2022/11/29 08:58:56;;;;;;;;;9.50;9.00;;;;;9.29;80.54;99979.59;5075734;28;8834;-59
2022/11/29 09:01:24;;;;;;;;;17.50;14.00;;;;;9.32;80.16;99994.44;5075830;28;8849;-59
2022/11/29 09:04:06;;;;;;;;;10.75;9.50;;;;;9.31;80.14;99993.63;5075933;28;8818;-59
2022/11/29 09:09:16;;;;;;;;;13.00;9.75;;;;;9.35;80.32;100000.38;5074876;28;9600;-59
2022/11/29 09:11:44;;;;;;;;;11.00;9.50;;;;;9.36;79.77;100002.09;5074730;28;8814;-57
2022/11/29 09:14:16;;;;;;;;;9.50;9.50;;;;;9.39;79.83;100004.53;5066763;28;8850;-58
2022/11/29 09:16:54;;;;;;;;;8.25;7.75;;;;;9.42;79.96;99998.13;5074986;28;8849;-59
2022/11/29 09:19:22;;;;;;;;;13.50;11.50;;;;;9.42;79.68;100001.63;5074388;28;8855;-59
2022/11/29 09:21:50;;;;;;;;;9.50;6.75;;;;;9.45;79.52;100016.50;5075010;28;9503;-58
2022/11/29 09:24:19;;;;;;;;;12.25;10.50;;;;;9.45;79.86;100022.69;5075244;28;8967;-59
2022/11/29 09:26:47;;;;;;;;;10.00;8.00;;;;;9.44;79.88;100018.34;5076045;28;8842;-58
2022/11/29 09:29:15;;;;;;;;;10.50;10.25;;;;;9.47;79.75;100026.06;5075289;28;8838;-59
2022/11/29 09:31:43;;;;;;;;;9.50;8.50;;;;;9.48;79.54;100029.59;5075960;28;9188;-59
2022/11/29 09:34:11;;;;;;;;;9.75;7.75;;;;;9.49;79.52;100033.94;5075971;28;8822;-59
2022/11/29 09:36:39;;;;;;;;;10.50;9.50;;;;;9.50;79.63;100030.31;5075802;28;8834;-58
2022/11/29 09:39:11;;;;;;;;;10.50;8.25;;;;;9.52;79.42;100034.56;5075732;28;8829;-59
2022/11/29 09:41:39;;;;;;;;;11.00;10.00;;;;;9.58;79.53;100034.09;5074429;28;8849;-56
2022/11/29 09:44:14;;;;;;;;;18.50;15.00;;;;;9.64;79.57;100033.63;5075025;28;8850;-57
2022/11/29 09:46:42;;;;;;;;;8.00;8.00;;;;;9.67;79.16;100036.09;5074565;28;8817;-57
2022/11/29 09:49:13;;;;;;;;;12.25;10.50;;;;;9.71;79.40;100045.50;5074863;28;8838;-59
2022/11/29 09:51:40;;;;;;;;;12.25;11.50;;;;;9.73;79.30;100046.25;5074563;28;8821;-59
2022/11/29 09:54:11;;;;;;;;;11.25;9.50;;;;;9.75;79.01;100052.31;5074468;28;8979;-59
2022/11/29 09:56:38;;;;;;;;;9.50;9.00;;;;;9.77;79.63;100047.72;5074570;28;8830;-57
2022/11/29 09:59:06;;;;;;;;;12.00;10.00;;;;;9.77;79.07;100052.19;5075381;28;8885;-57
2022/11/29 10:01:35;;;;;;;;;4.00;3.00;;;;;9.77;79.17;100052.19;5073841;28;8868;-59
2022/11/29 10:04:03;;;;;;;;;11.75;11.00;;;;;9.74;79.22;100050.63;5074429;28;8830;-59
2022/11/29 10:06:33;;;;;;;;;11.00;10.00;;;;;9.71;79.09;100056.16;5073104;28;8838;-56
2022/11/29 10:09:01;;;;;;;;;11.50;10.50;;;;;9.70;79.66;100053.59;5073989;28;8842;-58
2022/11/29 10:11:29;;;;;;;;;13.50;12.50;;;;;9.67;78.95;100056.50;5073474;28;9039;-58
2022/11/29 10:13:57;;;;;;;;;6.75;6.50;;;;;9.64;79.76;100054.91;5072948;28;8854;-58
2022/11/29 10:16:25;;;;;;;;;11.50;10.00;;;;;9.61;79.37;100057.81;5073997;28;9509;-58
2022/11/29 10:18:53;;;;;;;;;10.50;9.50;;;;;9.57;79.55;100053.66;5074684;28;8834;-59
2022/11/29 10:21:21;;;;;;;;;11.00;9.75;;;;;9.55;79.50;100055.59;5074645;28;9515;-59
2022/11/29 10:23:49;;;;;;;;;4.50;4.00;;;;;9.54;79.71;100048.56;5074599;28;8858;-56
2022/11/29 10:26:21;;;;;;;;;9.25;8.00;;;;;9.57;79.55;100051.00;5073945;28;8838;-59
2022/11/29 10:28:49;;;;;;;;;7.50;6.75;;;;;9.59;79.49;100062.38;5073820;28;8841;-59
2022/11/29 10:31:17;;;;;;;;;8.00;6.00;;;;;9.61;79.32;100059.59;5072253;28;8876;-58
2022/11/29 10:33:45;;;;;;;;;8.00;6.00;;;;;9.60;79.20;100053.44;5071776;28;8829;-59
2022/11/29 10:36:13;;;;;;;;;11.50;10.00;;;;;9.62;79.42;100055.97;5070202;28;8838;-58
2022/11/29 10:38:43;;;;;;;;;9.75;9.00;;;;;9.63;79.49;100053.22;5070178;28;8968;-59
2022/11/29 10:41:11;;;;;;;;;12.75;12.00;;;;;9.67;79.41;100049.38;5071379;28;8850;-57
2022/11/29 10:43:39;;;;;;;;;7.50;7.00;;;;;9.69;78.82;100047.44;5071762;28;8830;-59
2022/11/29 10:46:07;;;;;;;;;9.75;8.50;;;;;9.71;79.29;100066.78;5071199;28;8845;-57
2022/11/29 10:48:35;;;;;;;;;8.50;5.00;;;;;9.71;79.49;100056.16;5071405;28;8833;-58
2022/11/29 10:51:03;;;;;;;;;9.75;7.50;;;;;9.69;79.21;100055.41;5072334;28;8837;-59
2022/11/29 10:53:31;;;;;;;;;9.25;9.00;;;;;9.67;79.66;100065.34;5072085;28;8880;-59
2022/11/29 10:55:59;;;;;;;;;11.50;9.25;;;;;9.65;79.75;100064.56;5072959;28;8830;-59
2022/11/29 10:58:27;;;;;;;;;6.75;6.75;;;;;9.64;79.57;100068.19;5073501;28;9151;-59
2022/11/29 11:00:56;;;;;;;;;13.00;8.25;;;;;9.63;79.52;100058.53;5073728;28;8838;-59
2022/11/29 11:03:24;;;;;;;;;9.50;9.00;;;;;9.66;79.49;100063.59;5074078;28;8833;-58
2022/11/29 11:05:53;;;;;;;;;8.25;7.25;;;;;9.72;78.95;100065.00;5074537;28;8972;-58
2022/11/29 11:08:21;;;;;;;;;9.25;9.00;;;;;9.77;79.15;100057.50;5073754;28;8926;-58
2022/11/29 11:10:48;;;;;;;;;11.75;9.75;;;;;9.83;78.99;100063.22;5073031;28;8821;-59
2022/11/29 11:13:22;;;;;;;;;10.50;7.50;;;;;9.89;78.47;100060.13;5071549;28;8842;-58
2022/11/29 11:15:51;;;;;;;;;9.00;5.00;;;;;9.93;78.98;100061.56;5072389;28;9220;-59
2022/11/29 11:18:19;;;;;;;;;15.00;12.00;;;;;9.93;78.69;100060.72;5071936;28;8833;-59
2022/11/29 11:20:47;;;;;;;;;12.75;9.00;;;;;9.91;78.78;100062.63;5073249;28;8980;-59
2022/11/29 11:23:15;;;;;;;;;14.00;10.50;;;;;9.91;78.60;100060.84;5071864;28;8915;-59
2022/11/29 11:25:43;;;;;;;;;10.50;9.00;;;;;9.93;78.78;100060.72;5072201;28;8849;-59
2022/11/29 11:28:14;;;;;;;;;12.25;10.00;;;;;9.94;78.51;100062.44;5071288;28;8968;-59
2022/11/29 11:30:42;;;;;;;;;5.50;4.00;;;;;9.93;78.56;100061.56;5071800;28;8872;-59
2022/11/29 11:33:10;;;;;;;;;11.00;10.50;;;;;9.93;78.90;100055.41;5071974;28;8841;-59
2022/11/29 11:35:38;;;;;;;;;11.50;10.50;;;;;9.93;79.19;100058.91;5071615;28;8856;-57
2022/11/29 11:38:06;;;;;;;;;12.50;9.50;;;;;9.95;78.67;100059.63;5071309;28;8834;-59
2022/11/29 11:40:34;;;;;;;;;6.75;6.75;;;;;9.96;79.01;100056.00;5072236;28;8844;-59
2022/11/29 11:43:03;;;;;;;;;15.00;13.00;;;;;9.95;78.99;100056.97;5071722;28;8845;-59
2022/11/29 11:45:30;;;;;;;;;10.50;10.50;;;;;9.99;78.47;100062.91;5070737;28;8852;-59
2022/11/29 11:47:58;;;;;;;;;12.25;11.50;;;;;10.06;78.50;100058.84;5070564;28;8829;-59
2022/11/29 11:50:27;;;;;;;;;13.00;10.50;;;;;10.12;78.78;100059.25;5070674;28;8842;-59